createdAt,value
2023-03-01T00:01:40.312Z,98369.84
2023-03-01T00:04:07.137Z,98375.06
2023-03-01T00:06:33.990Z,98372.47
2023-03-01T00:09:00.771Z,98368.16
2023-03-01T00:11:29.983Z,98372.47
2023-03-01T00:13:59.864Z,98372.44
2023-03-01T00:16:32.976Z,98374.19
2023-03-01T00:19:09.341Z,98375.03
2023-03-01T00:21:36.303Z,98370.69
2023-03-01T00:24:03.642Z,98375.03
2023-03-01T00:26:31.084Z,98371.63
2023-03-01T00:28:59.491Z,98380.31
2023-03-01T00:31:30.182Z,98375.09
2023-03-01T00:33:58.802Z,98370.75
2023-03-01T00:36:33.376Z,98369.00
2023-03-01T00:39:02.964Z,98369.88
2023-03-01T00:41:29.719Z,98364.63
2023-03-01T00:43:58.948Z,98368.13
2023-03-01T00:46:27.933Z,98366.38
2023-03-01T00:48:55.135Z,98363.81
2023-03-01T00:51:27.550Z,98369.88
2023-03-01T00:53:57.693Z,98368.97
2023-03-01T00:56:30.310Z,98360.31
2023-03-01T00:59:03.081Z,98355.97
2023-03-01T01:01:31.580Z,98356.84
2023-03-01T01:04:07.951Z,98358.59
2023-03-01T01:06:39.152Z,98354.22
2023-03-01T01:09:07.802Z,98351.66
2023-03-01T01:11:36.410Z,98343.84
2023-03-01T01:14:03.924Z,98350.75
2023-03-01T01:16:31.036Z,98353.38
2023-03-01T01:18:58.731Z,98346.44
2023-03-01T01:21:27.148Z,98346.44
2023-03-01T01:23:54.291Z,98350.78
2023-03-01T01:26:22.391Z,98343.84
2023-03-01T01:28:49.428Z,98336.91
2023-03-01T01:31:16.784Z,98334.34
2023-03-01T01:33:45.317Z,98342.16
2023-03-01T01:36:12.451Z,98336.97
2023-03-01T01:38:40.242Z,98343.03
2023-03-01T01:41:08.354Z,98337.81
2023-03-01T01:43:38.447Z,98335.19
2023-03-01T01:46:32.984Z,98328.25
2023-03-01T01:49:28.005Z,98334.38
2023-03-01T01:52:08.202Z,98335.22
2023-03-01T01:54:48.033Z,98332.59
2023-03-01T01:57:22.988Z,98329.16
2023-03-01T01:59:54.547Z,98324.84
2023-03-01T02:02:21.822Z,98323.94
2023-03-01T02:04:56.821Z,98329.13
2023-03-01T02:07:25.558Z,98320.50
2023-03-01T02:09:53.863Z,98322.22
2023-03-01T02:12:24.454Z,98319.63
2023-03-01T02:14:51.205Z,98317.88
2023-03-01T02:17:19.404Z,98320.50
2023-03-01T02:20:18.897Z,98317.00
2023-03-01T02:22:47.546Z,98312.69
2023-03-01T02:25:20.306Z,98317.00
2023-03-01T02:28:06.994Z,98311.81
2023-03-01T02:30:36.898Z,98311.81
2023-03-01T02:33:04.958Z,98315.31
2023-03-01T02:35:36.216Z,98313.53
2023-03-01T02:38:04.707Z,98317.88
2023-03-01T02:40:35.811Z,98316.16
2023-03-01T02:43:05.329Z,98309.22
2023-03-01T02:45:31.902Z,98306.63
2023-03-01T02:47:58.803Z,98303.19
2023-03-01T02:50:31.475Z,98310.09
2023-03-01T02:53:30.089Z,98299.69
2023-03-01T02:55:56.830Z,98304.03
2023-03-01T02:58:26.789Z,98300.56
2023-03-01T03:00:53.625Z,98296.25
2023-03-01T03:03:22.356Z,98293.63
2023-03-01T03:05:55.984Z,98294.47
2023-03-01T03:08:25.601Z,98285.81
2023-03-01T03:10:52.333Z,98285.81
2023-03-01T03:13:20.216Z,98280.59
2023-03-01T03:15:46.982Z,98299.69
2023-03-01T03:18:17.931Z,98297.06
2023-03-01T03:20:45.686Z,98291.88
2023-03-01T03:23:13.516Z,98297.94
2023-03-01T03:25:40.477Z,98299.69
2023-03-01T03:28:11.034Z,98294.50
2023-03-01T03:30:40.288Z,98287.53
2023-03-01T03:33:16.061Z,98279.72
2023-03-01T03:35:47.847Z,98285.81
2023-03-01T03:38:17.116Z,98273.66
2023-03-01T03:40:48.893Z,98271.91
2023-03-01T03:43:20.093Z,98267.59
2023-03-01T03:45:48.002Z,98275.41
2023-03-01T03:48:18.759Z,98273.66
2023-03-01T03:50:56.896Z,98258.91
2023-03-01T03:53:25.222Z,98263.25
2023-03-01T03:55:52.760Z,98265.88
2023-03-01T03:58:24.142Z,98266.72
2023-03-01T04:00:58.300Z,98269.31
2023-03-01T04:03:27.057Z,98263.25
2023-03-01T04:05:54.005Z,98268.47
2023-03-01T04:08:23.060Z,98266.72
2023-03-01T04:10:52.352Z,98264.13
2023-03-01T04:13:21.929Z,98267.63
2023-03-01T04:15:56.108Z,98272.81
2023-03-01T04:18:38.582Z,98265.00
2023-03-01T04:21:05.440Z,98273.69
2023-03-01T04:23:32.110Z,98270.19
2023-03-01T04:25:59.865Z,98278.00
2023-03-01T04:28:47.158Z,98266.72
2023-03-01T04:31:19.466Z,98270.22
2023-03-01T04:33:47.850Z,98272.78
2023-03-01T04:36:16.949Z,98276.28
2023-03-01T04:38:48.455Z,98270.22
2023-03-01T04:41:19.552Z,98271.06
2023-03-01T04:43:46.632Z,98275.41
2023-03-01T04:46:20.813Z,98276.28
2023-03-01T04:48:48.524Z,98276.28
2023-03-01T04:51:19.693Z,98277.16
2023-03-01T04:53:46.348Z,98280.63
2023-03-01T04:56:18.814Z,98281.50
2023-03-01T04:58:45.934Z,98282.34
2023-03-01T05:01:21.900Z,98279.75
2023-03-01T05:03:53.128Z,98278.88
2023-03-01T05:06:21.491Z,98281.50
2023-03-01T05:08:48.605Z,98289.28
2023-03-01T05:11:15.237Z,98291.03
2023-03-01T05:13:44.402Z,98284.94
2023-03-01T05:16:12.710Z,98288.44
2023-03-01T05:18:40.584Z,98278.03
2023-03-01T05:21:09.817Z,98284.97
2023-03-01T05:23:37.298Z,98295.38
2023-03-01T05:26:11.330Z,98285.84
2023-03-01T05:28:41.355Z,98290.19
2023-03-01T05:31:10.741Z,98291.94
2023-03-01T05:33:39.159Z,98294.53
2023-03-01T05:36:07.234Z,98299.72
2023-03-01T05:38:36.808Z,98300.56
2023-03-01T05:41:03.556Z,98299.72
2023-03-01T05:43:35.478Z,98301.44
2023-03-01T05:46:02.621Z,98298.84
2023-03-01T05:48:29.326Z,98311.88
2023-03-01T05:50:58.959Z,98310.13
2023-03-01T05:53:25.549Z,98311.84
2023-03-01T05:55:52.413Z,98313.63
2023-03-01T05:58:22.756Z,98315.34
2023-03-01T06:00:49.989Z,98311.84
2023-03-01T06:03:18.315Z,98322.28
2023-03-01T06:05:45.553Z,98318.81
2023-03-01T06:08:12.796Z,98316.19
2023-03-01T06:10:40.052Z,98316.22
2023-03-01T06:13:06.832Z,98311.84
2023-03-01T06:15:33.856Z,98314.47
2023-03-01T06:18:03.334Z,98314.47
2023-03-01T06:20:30.419Z,98317.06
2023-03-01T06:22:57.674Z,98312.72
2023-03-01T06:25:27.117Z,98314.47
2023-03-01T06:27:53.886Z,98308.34
2023-03-01T06:30:22.914Z,98316.19
2023-03-01T06:32:50.190Z,98310.94
2023-03-01T06:35:23.876Z,98318.78
2023-03-01T06:37:50.544Z,98319.66
2023-03-01T06:40:17.668Z,98321.38
2023-03-01T06:42:50.008Z,98317.91
2023-03-01T06:45:18.252Z,98314.41
2023-03-01T06:47:44.930Z,98317.00
2023-03-01T06:50:12.202Z,98317.84
2023-03-01T06:52:39.769Z,98320.41
2023-03-01T06:55:07.315Z,98316.06
2023-03-01T06:57:34.027Z,98316.97
2023-03-01T07:00:00.661Z,98315.22
2023-03-01T07:02:27.382Z,98320.38
2023-03-01T07:04:56.194Z,98309.97
2023-03-01T07:07:25.436Z,98323.91
2023-03-01T07:09:54.290Z,98328.22
2023-03-01T07:12:20.934Z,98326.47
2023-03-01T07:14:47.518Z,98324.72
2023-03-01T07:17:16.440Z,98326.44
2023-03-01T07:19:43.172Z,98322.94
2023-03-01T07:22:11.658Z,98320.31
2023-03-01T07:24:40.974Z,98319.41
2023-03-01T07:27:07.737Z,98317.69
2023-03-01T07:29:40.404Z,98321.16
2023-03-01T07:32:07.777Z,98333.28
2023-03-01T07:34:37.058Z,98323.66
2023-03-01T07:37:03.687Z,98319.31
2023-03-01T07:39:30.949Z,98317.53
2023-03-01T07:41:58.120Z,98320.09
2023-03-01T07:44:34.619Z,98323.56
2023-03-01T07:47:01.730Z,98316.56
2023-03-01T07:49:28.415Z,98320.09
2023-03-01T07:51:55.265Z,98313.06
2023-03-01T07:54:21.956Z,98307.81
2023-03-01T07:56:48.873Z,98306.91
2023-03-01T07:59:15.631Z,98312.03
2023-03-01T08:01:42.486Z,98305.81
2023-03-01T08:04:12.071Z,98305.72
2023-03-01T08:06:47.952Z,98300.41
2023-03-01T08:09:14.574Z,98302.06
2023-03-01T08:11:41.224Z,98303.75
2023-03-01T08:14:07.847Z,98304.69
2023-03-01T08:16:40.481Z,98294.13
2023-03-01T08:19:11.796Z,98299.34
2023-03-01T08:21:41.591Z,98301.91
2023-03-01T08:24:09.041Z,98296.66
2023-03-01T08:26:35.820Z,98296.56
2023-03-01T08:29:02.619Z,98304.41
2023-03-01T08:31:38.625Z,98304.28
2023-03-01T08:34:21.453Z,98299.78
2023-03-01T08:36:54.168Z,98291.78
2023-03-01T08:39:21.437Z,98291.72
2023-03-01T08:41:54.473Z,98295.06
2023-03-01T08:44:22.057Z,98291.44
2023-03-01T08:49:35.730Z,98272.69
2023-03-01T08:52:08.599Z,98271.78
2023-03-01T08:54:35.108Z,98255.25
2023-03-01T08:57:04.339Z,98261.41
2023-03-01T08:59:31.096Z,98257.78
2023-03-01T09:01:57.608Z,98245.53
2023-03-01T09:04:29.738Z,98256.78
2023-03-01T09:06:56.373Z,98258.69
2023-03-01T09:09:23.135Z,98254.19
2023-03-01T09:11:54.825Z,98254.19
2023-03-01T09:14:21.345Z,98249.91
2023-03-01T09:16:47.971Z,98255.38
2023-03-01T09:19:15.042Z,98246.81
2023-03-01T09:21:41.642Z,98240.81
2023-03-01T09:24:14.216Z,98247.91
2023-03-01T09:26:40.763Z,98244.47
2023-03-01T09:29:07.244Z,98241.88
2023-03-01T09:31:33.801Z,98240.00
2023-03-01T09:34:00.248Z,98232.09
2023-03-01T09:36:26.913Z,98233.75
2023-03-01T09:39:01.410Z,98220.59
2023-03-01T09:41:39.703Z,98230.03
2023-03-01T09:44:12.028Z,98228.03
2023-03-01T09:46:42.751Z,98222.50
2023-03-01T09:49:20.396Z,98220.44
2023-03-01T09:51:54.989Z,98216.69
2023-03-01T09:54:21.543Z,98213.72
2023-03-01T09:56:54.490Z,98218.03
2023-03-01T09:59:27.080Z,98200.41
2023-03-01T10:01:56.475Z,98192.72
2023-03-01T10:04:47.642Z,98193.38
2023-03-01T10:07:33.333Z,98193.00
2023-03-01T10:10:05.629Z,98191.56
2023-03-01T10:12:47.226Z,98184.41
2023-03-01T10:15:13.971Z,98182.47
2023-03-01T10:17:46.220Z,98174.75
2023-03-01T10:20:19.958Z,98174.31
2023-03-01T10:22:53.311Z,98179.06
2023-03-01T10:25:46.291Z,98166.31
2023-03-01T10:28:18.651Z,98164.34
2023-03-01T10:30:46.129Z,98164.97
2023-03-01T10:33:26.266Z,98158.72
2023-03-01T10:35:53.212Z,98158.28
2023-03-01T10:38:24.498Z,98157.50
2023-03-01T10:41:02.309Z,98143.63
2023-03-01T10:43:49.031Z,98140.91
2023-03-01T10:46:26.237Z,98130.53
2023-03-01T10:49:06.872Z,98122.25
2023-03-01T10:51:34.617Z,98122.88
2023-03-01T10:54:01.876Z,98114.50
2023-03-01T10:56:28.391Z,98113.13
2023-03-01T10:59:01.045Z,98109.72
2023-03-01T11:01:31.002Z,98109.06
2023-03-01T11:04:24.134Z,98108.03
2023-03-01T11:06:59.033Z,98093.63
2023-03-01T11:09:28.922Z,98094.50
2023-03-01T11:11:56.756Z,98085.56
2023-03-01T11:14:28.030Z,98085.78
2023-03-01T11:17:14.884Z,98082.34
2023-03-01T11:19:48.838Z,98084.56
2023-03-01T11:22:22.228Z,98086.13
2023-03-01T11:24:57.369Z,98086.09
2023-03-01T11:27:29.758Z,98081.22
2023-03-01T11:30:14.223Z,98079.00
2023-03-01T11:32:48.084Z,98078.91
2023-03-01T11:35:17.620Z,98080.22
2023-03-01T11:37:56.156Z,98073.81
2023-03-01T11:40:28.563Z,98076.19
2023-03-01T11:43:24.185Z,98067.69
2023-03-01T11:46:12.937Z,98070.34
2023-03-01T11:49:00.146Z,98062.31
2023-03-01T11:51:39.603Z,98071.94
2023-03-01T11:54:11.160Z,98071.53
2023-03-01T11:57:00.885Z,98069.91
2023-03-01T11:59:36.421Z,98064.63
2023-03-01T12:02:06.347Z,98060.38
2023-03-01T12:04:32.880Z,98057.22
2023-03-01T12:06:59.438Z,98063.19
2023-03-01T12:09:39.444Z,98057.31
2023-03-01T12:12:24.862Z,98052.97
2023-03-01T12:15:07.097Z,98056.78
2023-03-01T12:17:43.031Z,98047.72
2023-03-01T12:20:24.335Z,98044.25
2023-03-01T12:22:52.166Z,98046.00
2023-03-01T12:25:30.864Z,98038.69
2023-03-01T12:28:16.178Z,98037.78
2023-03-01T12:30:51.687Z,98043.06
2023-03-01T12:33:29.714Z,98032.38
2023-03-01T12:36:02.247Z,98031.84
2023-03-01T12:38:38.603Z,98041.59
2023-03-01T12:41:25.973Z,98039.03
2023-03-01T12:43:59.372Z,98036.66
2023-03-01T12:46:47.820Z,98048.84
2023-03-01T12:49:17.122Z,98033.69
2023-03-01T12:51:50.208Z,98033.56
2023-03-01T12:54:18.065Z,98031.00
2023-03-01T12:56:56.488Z,98027.56
2023-03-01T12:59:29.014Z,98027.75
2023-03-01T13:02:02.009Z,98021.63
2023-03-01T13:04:43.518Z,98020.47
2023-03-01T13:07:23.893Z,98018.25
2023-03-01T13:09:56.616Z,98021.06
2023-03-01T13:12:41.746Z,98017.66
2023-03-01T13:15:25.702Z,98020.13
2023-03-01T13:17:59.764Z,98019.19
2023-03-01T13:20:44.918Z,98026.16
2023-03-01T13:23:21.468Z,98010.19
2023-03-01T13:26:00.161Z,98008.56
2023-03-01T13:28:32.659Z,98009.84
2023-03-01T13:30:59.758Z,98014.22
2023-03-01T13:33:29.064Z,98008.09
2023-03-01T13:35:59.523Z,98004.34
2023-03-01T13:38:44.739Z,98001.59
2023-03-01T13:41:11.299Z,97987.56
2023-03-01T13:43:40.680Z,97998.94
2023-03-01T13:46:19.684Z,97990.97
2023-03-01T13:48:49.011Z,97992.59
2023-03-01T13:51:23.972Z,97987.41
2023-03-01T13:53:53.394Z,97985.63
2023-03-01T13:56:27.051Z,97986.66
2023-03-01T13:58:54.981Z,97986.16
2023-03-01T14:01:23.500Z,97984.50
2023-03-01T14:03:53.937Z,97976.84
2023-03-01T14:06:25.302Z,97988.28
2023-03-01T14:08:53.664Z,97985.53
2023-03-01T14:11:38.636Z,97983.84
2023-03-01T14:14:27.111Z,97981.34
2023-03-01T14:16:56.494Z,97982.91
2023-03-01T14:19:34.234Z,97980.09
2023-03-01T14:22:08.698Z,97977.56
2023-03-01T14:27:04.727Z,97980.19
2023-03-01T14:29:38.450Z,97981.28
2023-03-01T14:33:28.976Z,97981.22
2023-03-01T14:36:01.390Z,97983.91
2023-03-01T14:39:51.528Z,97980.72
2023-03-01T14:42:19.171Z,97984.19
2023-03-01T14:53:50.273Z,97983.41
2023-03-01T14:56:21.417Z,97974.66
2023-03-01T14:58:51.906Z,97970.34
2023-03-01T15:01:19.342Z,97970.34
2023-03-01T15:03:50.999Z,97964.09
2023-03-01T15:06:23.833Z,97964.97
2023-03-01T15:08:54.996Z,97964.09
2023-03-01T15:11:29.293Z,97968.56
2023-03-01T15:13:56.206Z,97966.00
2023-03-01T15:16:31.632Z,97970.50
2023-03-01T15:19:00.358Z,97968.81
2023-03-01T15:21:37.283Z,97967.81
2023-03-01T15:24:13.165Z,97974.06
2023-03-01T15:26:44.689Z,97972.44
2023-03-01T15:29:23.157Z,97974.34
2023-03-01T15:32:16.639Z,97968.28
2023-03-01T15:34:48.717Z,97968.28
2023-03-01T15:37:39.868Z,97971.69
2023-03-01T15:40:54.918Z,97961.31
2023-03-01T15:43:43.853Z,97968.53
2023-03-01T15:46:20.007Z,97970.16
2023-03-01T15:48:47.734Z,97964.97
2023-03-01T15:51:23.259Z,97970.47
2023-03-01T15:53:54.590Z,97972.22
2023-03-01T15:56:21.487Z,97974.16
2023-03-01T15:58:48.043Z,97977.59
2023-03-01T16:01:15.636Z,97975.09
2023-03-01T16:03:42.704Z,97972.59
2023-03-01T16:06:12.970Z,97978.81
2023-03-01T16:08:39.498Z,97985.91
2023-03-01T16:11:06.871Z,97991.16
2023-03-01T16:13:33.449Z,97986.09
2023-03-01T16:16:04.578Z,97981.88
2023-03-01T16:18:31.191Z,97984.47
2023-03-01T16:20:57.719Z,97988.00
2023-03-01T16:23:26.015Z,97990.69
2023-03-01T16:25:52.587Z,97986.16
2023-03-01T16:28:19.153Z,97986.91
2023-03-01T16:30:52.386Z,97982.59
2023-03-01T16:33:29.423Z,97992.25
2023-03-01T16:36:03.416Z,97990.56
2023-03-01T16:38:30.153Z,97985.38
2023-03-01T16:40:59.676Z,97992.50
2023-03-01T16:43:26.971Z,97990.84
2023-03-01T16:45:53.519Z,97998.66
2023-03-01T16:48:20.136Z,97997.03
2023-03-01T16:50:48.188Z,98006.91
2023-03-01T16:53:14.880Z,98008.75
2023-03-01T16:55:46.413Z,98004.34
2023-03-01T16:58:13.169Z,98009.66
2023-03-01T17:00:39.696Z,98015.78
2023-03-01T17:03:06.180Z,98018.53
2023-03-01T17:05:32.680Z,98019.53
2023-03-01T17:08:00.929Z,98016.00
2023-03-01T17:10:27.524Z,98017.06
2023-03-01T17:12:54.826Z,98013.63
2023-03-01T17:15:21.390Z,98021.44
2023-03-01T17:17:51.886Z,98019.53
2023-03-01T17:20:18.678Z,98011.06
2023-03-01T17:22:45.236Z,98011.94
2023-03-01T17:25:11.904Z,98018.94
2023-03-01T17:27:41.522Z,98016.28
2023-03-01T17:30:13.459Z,98013.84
2023-03-01T17:32:40.484Z,98013.88
2023-03-01T17:35:12.794Z,98009.66
2023-03-01T17:37:39.947Z,98001.84
2023-03-01T17:40:06.817Z,98001.78
2023-03-01T17:42:33.512Z,98003.47
2023-03-01T17:45:00.824Z,98006.91
2023-03-01T17:47:28.882Z,98006.94
2023-03-01T17:49:56.960Z,98014.09
2023-03-01T17:52:26.629Z,98011.47
2023-03-01T17:54:53.151Z,98008.81
2023-03-01T17:57:19.710Z,98013.34
2023-03-01T17:59:48.927Z,98016.72
2023-03-01T18:02:15.537Z,98010.63
2023-03-01T18:04:42.172Z,98010.78
2023-03-01T18:07:08.638Z,98008.16
2023-03-01T18:09:35.231Z,98010.94
2023-03-01T18:12:04.734Z,98014.44
2023-03-01T18:14:34.055Z,98009.19
2023-03-01T18:17:03.412Z,98008.28
2023-03-01T18:19:30.130Z,98005.72
2023-03-01T18:21:56.927Z,98009.97
2023-03-01T18:24:23.889Z,98013.47
2023-03-01T18:26:50.591Z,98008.34
2023-03-01T18:29:19.490Z,98014.56
2023-03-01T18:31:46.283Z,98011.16
2023-03-01T18:34:13.019Z,98001.44
2023-03-01T18:36:41.473Z,98007.44
2023-03-01T18:39:08.459Z,98006.63
2023-03-01T18:41:36.025Z,98008.41
2023-03-01T18:44:05.602Z,98008.47
2023-03-01T18:46:34.174Z,98011.09
2023-03-01T18:49:01.867Z,98002.44
2023-03-01T18:51:31.972Z,98004.13
2023-03-01T18:53:58.834Z,98003.31
2023-03-01T18:56:25.902Z,98004.22
2023-03-01T18:59:00.487Z,98009.47
2023-03-01T19:01:28.600Z,98007.75
2023-03-01T19:03:56.379Z,98012.19
2023-03-01T19:06:23.800Z,98009.50
2023-03-01T19:08:52.659Z,98012.00
2023-03-01T19:11:20.265Z,98000.66
2023-03-01T19:13:47.441Z,98007.75
2023-03-01T19:16:18.320Z,98009.56
2023-03-01T19:18:50.381Z,98007.09
2023-03-01T19:21:20.743Z,98009.78
2023-03-01T19:23:48.781Z,98011.47
2023-03-01T19:26:21.945Z,98009.56
2023-03-01T19:28:48.622Z,98004.28
2023-03-01T19:31:16.858Z,98004.34
2023-03-01T19:33:43.529Z,98005.94
2023-03-01T19:36:12.719Z,98005.13
2023-03-01T19:38:42.358Z,98003.31
2023-03-01T19:41:10.660Z,98004.34
2023-03-01T19:43:37.413Z,98007.16
2023-03-01T19:46:04.414Z,98010.84
2023-03-01T19:48:31.210Z,98013.47
2023-03-01T19:50:58.801Z,98012.41
2023-03-01T19:53:25.338Z,98010.69
2023-03-01T19:55:58.286Z,98013.44
2023-03-01T19:58:25.119Z,98022.28
2023-03-01T20:00:58.521Z,98015.31
2023-03-01T20:03:27.388Z,98013.66
2023-03-01T20:05:54.151Z,98017.16
2023-03-01T20:08:20.654Z,98020.63
2023-03-01T20:10:47.277Z,98026.00
2023-03-01T20:13:16.782Z,98018.09
2023-03-01T20:15:44.051Z,98017.25
2023-03-01T20:18:11.565Z,98017.22
2023-03-01T20:20:38.632Z,98014.56
2023-03-01T20:23:07.118Z,98020.75
2023-03-01T20:25:36.803Z,98016.38
2023-03-01T20:28:06.311Z,98024.25
2023-03-01T20:30:32.809Z,98018.94
2023-03-01T20:32:59.395Z,98022.41
2023-03-01T20:35:25.990Z,98019.84
2023-03-01T20:37:54.069Z,98019.00
2023-03-01T20:40:21.503Z,98020.69
2023-03-01T20:42:48.133Z,98020.69
2023-03-01T20:45:14.844Z,98027.72
2023-03-01T20:47:41.395Z,98022.59
2023-03-01T20:50:08.072Z,98021.88
2023-03-01T20:52:45.723Z,98018.41
2023-03-01T20:55:13.774Z,98024.38
2023-03-01T20:57:40.344Z,98019.00
2023-03-01T21:00:07.226Z,98021.69
2023-03-01T21:02:33.768Z,98025.16
2023-03-01T21:05:01.525Z,98024.25
2023-03-01T21:07:31.153Z,98027.84
2023-03-01T21:10:03.523Z,98026.19
2023-03-01T21:12:30.578Z,98028.81
2023-03-01T21:14:57.129Z,98027.16
2023-03-01T21:17:23.714Z,98026.25
2023-03-01T21:19:50.793Z,98028.94
2023-03-01T21:22:17.577Z,98024.66
2023-03-01T21:24:44.163Z,98028.09
2023-03-01T21:27:11.227Z,98034.22
2023-03-01T21:29:41.403Z,98028.06
2023-03-01T21:32:08.967Z,98029.00
2023-03-01T21:34:39.316Z,98028.19
2023-03-01T21:37:06.366Z,98033.59
2023-03-01T21:39:33.180Z,98026.53
2023-03-01T21:42:01.121Z,98024.78
2023-03-01T21:44:29.239Z,98031.78
2023-03-01T21:46:56.107Z,98025.78
2023-03-01T21:49:24.556Z,98038.06
2023-03-01T21:51:51.126Z,98038.97
2023-03-01T21:54:19.682Z,98036.38
2023-03-01T21:56:47.196Z,98038.22
2023-03-01T21:59:15.541Z,98038.31
2023-03-01T22:01:42.372Z,98033.88
2023-03-01T22:04:09.020Z,98030.38
2023-03-01T22:06:40.680Z,98032.91
2023-03-01T22:09:09.200Z,98027.78
2023-03-01T22:11:37.358Z,98026.13
2023-03-01T22:14:04.912Z,98024.31
2023-03-01T22:16:33.037Z,98024.31
2023-03-01T22:18:59.778Z,98028.69
2023-03-01T22:21:34.603Z,98021.69
2023-03-01T22:24:04.475Z,98019.13
2023-03-01T22:26:42.245Z,98016.44
2023-03-01T22:29:13.866Z,98019.91
2023-03-01T22:31:41.280Z,98016.44
2023-03-01T22:34:08.137Z,98015.56
2023-03-01T22:36:37.395Z,98005.97
2023-03-01T22:39:04.418Z,98005.03
2023-03-01T22:41:38.551Z,98005.91
2023-03-01T22:44:05.128Z,97998.09
2023-03-01T22:46:32.169Z,97998.94
2023-03-01T22:48:58.915Z,97998.84
2023-03-01T22:51:27.047Z,97994.63
2023-03-01T22:53:53.970Z,97997.13
2023-03-01T22:56:22.159Z,97992.78
2023-03-01T22:58:49.031Z,97991.13
2023-03-01T23:01:17.119Z,97995.47
2023-03-01T23:03:43.730Z,97992.91
2023-03-01T23:06:10.945Z,98004.31
2023-03-01T23:08:37.499Z,97992.94
2023-03-01T23:11:07.593Z,98003.34
2023-03-01T23:13:34.125Z,98011.19
2023-03-01T23:16:00.746Z,98004.19
2023-03-01T23:18:27.354Z,98010.50
2023-03-01T23:20:53.930Z,98004.41
2023-03-01T23:23:20.416Z,98004.34
2023-03-01T23:26:02.068Z,98005.25
2023-03-01T23:28:29.885Z,98009.69
2023-03-01T23:30:57.690Z,98011.38
2023-03-01T23:33:24.841Z,98006.22
2023-03-01T23:35:52.783Z,98001.09
2023-03-01T23:38:20.650Z,98002.00
2023-03-01T23:40:47.615Z,98006.38
2023-03-01T23:43:14.452Z,98001.19
2023-03-01T23:45:43.889Z,97997.78
2023-03-01T23:48:13.677Z,98001.31
2023-03-01T23:50:44.182Z,97991.69
2023-03-01T23:53:16.963Z,98002.06
2023-03-01T23:55:51.278Z,97995.91
2023-03-01T23:58:20.101Z,97991.47
